Time;durP1;ratioP1;P1;durP2;ratioP2;P2;SDS_P1;SDS_P2;PMS_P1;PMS_P2;Temp;Humidity;BMP_temperature;BMP_pressure;BME280_temperature;BME280_humidity;BME280_pressure;Samples;Min_cycle;Max_cycle;Signal;HPM_P1;HPM_P2
2022/05/06 00:00:29;;;;;;;16.88;13.95;;;;;;;;;;5104016;28;20203;-68
2022/05/06 00:02:57;;;;;;;16.42;13.13;;;;;;;;;;5103746;28;20210;-68
2022/05/06 00:05:23;;;;;;;15.02;12.80;;;;;;;;;;5103799;28;20325;-68
2022/05/06 00:07:49;;;;;;;18.90;13.48;;;;;;;;;;5103590;28;20192;-68
2022/05/06 00:10:16;;;;;;;17.13;12.90;;;;;;;;;;5104042;28;20196;-68
2022/05/06 00:12:42;;;;;;;17.13;13.88;;;;;;;;;;5103800;28;20191;-68
2022/05/06 00:15:09;;;;;;;19.00;12.98;;;;;;;;;;5103725;28;20241;-68
2022/05/06 00:17:35;;;;;;;16.20;12.88;;;;;;;;;;5103316;28;20494;-68
2022/05/06 00:20:04;;;;;;;15.77;13.25;;;;;;;;;;5104117;28;20275;-68
2022/05/06 00:22:30;;;;;;;16.85;12.90;;;;;;;;;;5103454;28;20462;-68
2022/05/06 00:24:56;;;;;;;16.48;13.38;;;;;;;;;;5103740;28;20195;-68
2022/05/06 00:27:22;;;;;;;16.73;12.80;;;;;;;;;;5103128;28;20238;-68
2022/05/06 00:29:49;;;;;;;15.98;12.73;;;;;;;;;;5103444;28;20196;-68
2022/05/06 00:32:15;;;;;;;20.88;16.58;;;;;;;;;;5103512;28;20200;-68
2022/05/06 00:34:41;;;;;;;18.60;14.68;;;;;;;;;;5102922;28;20309;-68
2022/05/06 00:37:09;;;;;;;21.08;15.00;;;;;;;;;;5103118;28;20219;-68
2022/05/06 00:39:35;;;;;;;20.45;14.70;;;;;;;;;;5103386;28;20203;-68
2022/05/06 00:42:01;;;;;;;18.58;13.80;;;;;;;;;;5103296;28;20358;-68
2022/05/06 00:44:29;;;;;;;22.40;14.02;;;;;;;;;;5103147;28;20199;-68
2022/05/06 00:46:56;;;;;;;18.05;13.25;;;;;;;;;;5102901;28;20214;-68
2022/05/06 00:49:23;;;;;;;16.00;12.15;;;;;;;;;;5102950;28;20200;-68
2022/05/06 00:51:51;;;;;;;17.35;13.00;;;;;;;;;;5103196;28;20503;-69
2022/05/06 00:54:21;;;;;;;19.42;13.98;;;;;;;;;;5103082;28;20271;-68
2022/05/06 00:56:47;;;;;;;19.20;12.15;;;;;;;;;;5102595;28;20270;-68
2022/05/06 00:59:14;;;;;;;19.75;15.07;;;;;;;;;;5102835;28;20230;-68
2022/05/06 01:01:40;;;;;;;20.30;15.07;;;;;;;;;;5102865;28;20425;-68
2022/05/06 01:04:07;;;;;;;18.30;13.93;;;;;;;;;;5102652;28;20407;-68
2022/05/06 01:06:34;;;;;;;18.58;13.75;;;;;;;;;;5102533;28;20215;-68
2022/05/06 01:09:00;;;;;;;19.52;13.90;;;;;;;;;;5102791;28;20451;-68
2022/05/06 01:11:28;;;;;;;16.70;13.57;;;;;;;;;;5102800;28;20406;-68
2022/05/06 01:13:56;;;;;;;18.48;15.70;;;;;;;;;;5102412;28;20199;-68
2022/05/06 01:16:22;;;;;;;19.90;15.57;;;;;;;;;;5102303;28;20385;-68
2022/05/06 01:18:48;;;;;;;25.58;17.45;;;;;;;;;;5102670;28;20384;-68
2022/05/06 01:21:19;;;;;;;22.80;16.23;;;;;;;;;;5102823;28;20196;-68
2022/05/06 01:23:46;;;;;;;20.80;15.70;;;;;;;;;;5102733;28;20200;-68
2022/05/06 01:26:13;;;;;;;21.33;15.65;;;;;;;;;;5102353;28;20196;-68
2022/05/06 01:28:40;;;;;;;18.65;14.73;;;;;;;;;;5102390;28;20237;-68
2022/05/06 01:31:07;;;;;;;20.13;15.23;;;;;;;;;;5102349;28;20214;-68
2022/05/06 01:33:34;;;;;;;19.52;15.27;;;;;;;;;;5102671;28;20195;-68
2022/05/06 01:36:01;;;;;;;22.10;13.70;;;;;;;;;;5102361;28;20204;-68
2022/05/06 01:38:31;;;;;;;22.83;14.90;;;;;;;;;;5102170;28;20226;-68
2022/05/06 01:41:00;;;;;;;23.85;15.15;;;;;;;;;;5101731;28;20495;-68
2022/05/06 01:43:28;;;;;;;23.92;15.45;;;;;;;;;;5102358;28;20196;-68
2022/05/06 01:45:56;;;;;;;22.85;16.95;;;;;;;;;;5104702;28;20275;-68
2022/05/06 01:48:23;;;;;;;24.27;15.38;;;;;;;;;;5106710;28;20192;-68
2022/05/06 01:50:49;;;;;;;20.02;15.25;;;;;;;;;;5106466;28;20195;-68
2022/05/06 01:53:17;;;;;;;23.08;16.13;;;;;;;;;;5106322;28;20196;-68
2022/05/06 01:55:44;;;;;;;22.85;15.27;;;;;;;;;;5106492;28;20364;-68
2022/05/06 01:58:11;;;;;;;21.52;15.45;;;;;;;;;;5106124;28;20565;-68
2022/05/06 02:00:38;;;;;;;25.80;15.80;;;;;;;;;;5106479;28;20195;-68
2022/05/06 02:03:04;;;;;;;19.58;14.85;;;;;;;;;;5106194;28;20210;-68
2022/05/06 02:05:29;;;;;;;20.30;15.18;;;;;;;;;;5106044;28;20214;-68
2022/05/06 02:07:56;;;;;;;19.15;14.10;;;;;;;;;;5106229;28;20215;-68
2022/05/06 02:10:23;;;;;;;21.48;14.27;;;;;;;;;;5106271;28;20199;-68
2022/05/06 02:12:49;;;;;;;19.92;14.57;;;;;;;;;;5106189;28;20471;-68
2022/05/06 02:15:18;;;;;;;20.73;15.40;;;;;;;;;;5106084;28;20559;-68
2022/05/06 02:17:44;;;;;;;23.25;15.00;;;;;;;;;;5105771;28;20248;-68
2022/05/06 02:20:11;;;;;;;23.20;17.00;;;;;;;;;;5105814;28;20196;-68
2022/05/06 02:22:38;;;;;;;19.05;16.70;;;;;;;;;;5105906;28;20202;-69
2022/05/06 02:25:09;;;;;;;22.20;16.23;;;;;;;;;;5106005;28;20203;-69
2022/05/06 02:27:35;;;;;;;23.83;16.40;;;;;;;;;;5105643;28;20192;-69
2022/05/06 02:35:31;;;;;;;29.08;19.20;;;;;;;;;;5105704;28;20574;-68
2022/05/06 02:37:57;;;;;;;27.70;19.45;;;;;;;;;;5105417;28;20216;-68
2022/05/06 02:40:23;;;;;;;30.50;21.00;;;;;;;;;;5105585;28;20499;-68
2022/05/06 02:42:49;;;;;;;32.05;20.15;;;;;;;;;;5105560;28;20515;-68
2022/05/06 02:45:16;;;;;;;27.48;18.35;;;;;;;;;;5105465;28;20232;-68
2022/05/06 02:47:42;;;;;;;26.75;19.23;;;;;;;;;;5105501;28;20191;-68
2022/05/06 02:50:10;;;;;;;25.88;18.30;;;;;;;;;;5105420;28;20196;-68
2022/05/06 02:52:36;;;;;;;28.77;18.48;;;;;;;;;;5105361;28;20499;-68
2022/05/06 02:55:02;;;;;;;29.10;18.38;;;;;;;;;;5105367;28;20196;-68
2022/05/06 02:57:29;;;;;;;22.92;17.40;;;;;;;;;;5104824;28;20272;-68
2022/05/06 02:59:55;;;;;;;25.40;18.67;;;;;;;;;;5105150;28;20196;-68
2022/05/06 03:02:22;;;;;;;27.05;18.85;;;;;;;;;;5105185;28;20214;-68
2022/05/06 03:04:48;;;;;;;29.98;18.77;;;;;;;;;;5105173;28;20200;-68
2022/05/06 03:07:16;;;;;;;25.70;17.83;;;;;;;;;;5104974;28;20202;-68
2022/05/06 03:09:42;;;;;;;26.75;17.77;;;;;;;;;;5105067;28;20207;-68
2022/05/06 03:12:09;;;;;;;24.58;17.45;;;;;;;;;;5104794;28;20195;-68
2022/05/06 03:14:36;;;;;;;23.30;18.48;;;;;;;;;;5105127;28;20202;-68
2022/05/06 03:17:02;;;;;;;25.52;18.17;;;;;;;;;;5104876;28;20432;-68
2022/05/06 03:19:28;;;;;;;24.75;17.55;;;;;;;;;;5104946;28;20215;-68
2022/05/06 03:21:55;;;;;;;26.75;18.45;;;;;;;;;;5104862;28;20199;-68
2022/05/06 03:24:23;;;;;;;20.92;16.02;;;;;;;;;;5104833;28;20202;-69
2022/05/06 03:26:49;;;;;;;25.90;16.25;;;;;;;;;;5104245;28;20195;-68
2022/05/06 03:29:15;;;;;;;25.17;16.83;;;;;;;;;;5104694;28;20196;-68
2022/05/06 03:31:42;;;;;;;20.23;15.27;;;;;;;;;;5104761;28;20452;-68
2022/05/06 03:34:08;;;;;;;21.02;14.30;;;;;;;;;;5104566;28;20517;-68
2022/05/06 03:36:34;;;;;;;23.38;16.05;;;;;;;;;;5104300;28;20196;-68
2022/05/06 03:39:01;;;;;;;23.58;15.43;;;;;;;;;;5104412;28;20530;-68
2022/05/06 03:41:29;;;;;;;22.17;15.95;;;;;;;;;;5104249;28;20443;-68
2022/05/06 03:43:55;;;;;;;25.10;15.70;;;;;;;;;;5104372;28;20196;-68
2022/05/06 03:46:21;;;;;;;19.98;14.95;;;;;;;;;;5104152;28;20203;-68
2022/05/06 03:48:48;;;;;;;22.63;16.42;;;;;;;;;;5104701;28;20192;-68
2022/05/06 03:51:24;;;;;;;18.38;14.40;;;;;;;;;;5104315;28;20203;-68
2022/05/06 03:53:50;;;;;;;20.50;15.15;;;;;;;;;;5104102;28;20270;-69
2022/05/06 03:56:16;;;;;;;20.63;15.50;;;;;;;;;;5103979;28;20200;-68
2022/05/06 03:58:44;;;;;;;22.63;15.88;;;;;;;;;;5104072;28;20219;-68
2022/05/06 04:01:11;;;;;;;22.92;14.88;;;;;;;;;;5104049;28;20321;-68
2022/05/06 04:03:38;;;;;;;21.88;13.52;;;;;;;;;;5103881;28;20215;-68
2022/05/06 04:06:05;;;;;;;19.80;14.65;;;;;;;;;;5103657;28;20504;-68
2022/05/06 04:08:31;;;;;;;20.38;14.38;;;;;;;;;;5102721;28;20221;-68
2022/05/06 04:10:58;;;;;;;23.33;15.98;;;;;;;;;;5103503;28;20211;-68
2022/05/06 04:13:24;;;;;;;22.33;15.32;;;;;;;;;;5103843;28;20203;-68
2022/05/06 04:15:52;;;;;;;21.33;14.85;;;;;;;;;;5103789;28;20507;-68
2022/05/06 04:18:18;;;;;;;20.30;15.45;;;;;;;;;;5103484;28;20216;-68
2022/05/06 04:23:32;;;;;;;22.67;15.23;;;;;;;;;;5103553;28;20229;-68
2022/05/06 04:25:59;;;;;;;20.15;15.20;;;;;;;;;;5103433;28;20195;-68
2022/05/06 04:28:26;;;;;;;24.00;15.65;;;;;;;;;;5103479;28;20222;-68
2022/05/06 04:30:53;;;;;;;23.67;15.10;;;;;;;;;;5103300;28;20201;-68
2022/05/06 04:33:20;;;;;;;18.10;14.05;;;;;;;;;;5103281;28;20196;-68
2022/05/06 04:35:46;;;;;;;17.85;13.88;;;;;;;;;;5103551;28;20200;-68
2022/05/06 04:38:12;;;;;;;19.83;14.63;;;;;;;;;;5103073;28;20679;-68
2022/05/06 04:40:40;;;;;;;22.60;14.07;;;;;;;;;;5103291;28;20200;-68
2022/05/06 04:43:07;;;;;;;18.65;14.23;;;;;;;;;;5103048;28;20203;-68
2022/05/06 04:45:36;;;;;;;15.27;13.68;;;;;;;;;;5103198;28;20204;-68
2022/05/06 04:48:05;;;;;;;15.55;13.50;;;;;;;;;;5102848;28;20206;-68
2022/05/06 04:50:31;;;;;;;15.90;12.90;;;;;;;;;;5103285;28;20553;-68
2022/05/06 04:52:58;;;;;;;16.55;12.85;;;;;;;;;;5103110;28;20386;-68
2022/05/06 04:55:24;;;;;;;16.58;13.18;;;;;;;;;;5103059;28;20195;-68
2022/05/06 04:57:51;;;;;;;14.98;12.13;;;;;;;;;;5102582;28;20204;-68
2022/05/06 05:00:17;;;;;;;19.42;12.80;;;;;;;;;;5102946;28;20525;-68
2022/05/06 05:02:44;;;;;;;16.42;11.57;;;;;;;;;;5102566;28;20209;-68
2022/05/06 05:05:12;;;;;;;14.43;11.52;;;;;;;;;;5102900;28;20243;-68
2022/05/06 05:07:39;;;;;;;15.23;11.05;;;;;;;;;;5102688;28;20444;-68
2022/05/06 05:10:06;;;;;;;14.13;11.10;;;;;;;;;;5102785;28;20421;-68
2022/05/06 05:12:32;;;;;;;19.17;12.32;;;;;;;;;;5102193;28;20199;-68
2022/05/06 05:14:59;;;;;;;15.63;11.48;;;;;;;;;;5102754;28;20440;-68
2022/05/06 05:17:25;;;;;;;13.90;10.68;;;;;;;;;;5102367;28;20202;-68
2022/05/06 05:19:51;;;;;;;17.35;12.68;;;;;;;;;;5101603;28;20227;-68
2022/05/06 05:22:19;;;;;;;14.98;13.23;;;;;;;;;;5102520;28;20196;-68
2022/05/06 05:24:45;;;;;;;20.77;13.40;;;;;;;;;;5102632;28;20202;-68
2022/05/06 05:27:13;;;;;;;17.67;12.93;;;;;;;;;;5102255;28;20195;-68
2022/05/06 05:29:39;;;;;;;15.73;13.00;;;;;;;;;;5102654;28;20251;-68
2022/05/06 05:32:06;;;;;;;15.90;13.18;;;;;;;;;;5102726;28;20399;-68
2022/05/06 05:34:32;;;;;;;17.23;13.43;;;;;;;;;;5102543;28;20513;-69
2022/05/06 05:36:59;;;;;;;17.63;12.55;;;;;;;;;;5102167;28;20195;-69
2022/05/06 05:39:26;;;;;;;15.30;12.50;;;;;;;;;;5102230;28;20219;-69
2022/05/06 05:41:53;;;;;;;14.70;12.70;;;;;;;;;;5102370;28;20203;-69
2022/05/06 05:49:47;;;;;;;15.05;12.02;;;;;;;;;;5088837;28;20208;-63
2022/05/06 05:52:13;;;;;;;13.35;11.95;;;;;;;;;;5093492;28;20210;-62
2022/05/06 05:54:41;;;;;;;13.52;11.48;;;;;;;;;;5096176;28;20212;-62
2022/05/06 05:57:07;;;;;;;25.25;17.58;;;;;;;;;;5095758;28;20203;-62
2022/05/06 05:59:34;;;;;;;12.52;11.20;;;;;;;;;;5086014;28;20223;-62
2022/05/06 06:02:00;;;;;;;12.80;11.50;;;;;;;;;;5096016;28;20211;-62
2022/05/06 06:04:27;;;;;;;13.63;11.40;;;;;;;;;;5096491;28;20303;-61
2022/05/06 06:06:53;;;;;;;13.30;11.95;;;;;;;;;;5094876;28;20716;-62
2022/05/06 06:09:22;;;;;;;14.95;11.75;;;;;;;;;;5095206;28;20286;-62
2022/05/06 06:11:49;;;;;;;13.77;11.73;;;;;;;;;;5096289;28;20196;-62
2022/05/06 06:14:16;;;;;;;11.38;10.27;;;;;;;;;;5095688;28;20212;-62
2022/05/06 06:16:43;;;;;;;13.63;10.23;;;;;;;;;;5095313;28;20216;-61
2022/05/06 06:19:10;;;;;;;12.90;11.38;;;;;;;;;;5095667;28;20438;-61
2022/05/06 06:21:36;;;;;;;13.73;11.15;;;;;;;;;;5096134;28;20207;-62
2022/05/06 06:24:03;;;;;;;15.00;12.10;;;;;;;;;;5096038;28;20219;-62
2022/05/06 06:26:29;;;;;;;13.80;10.82;;;;;;;;;;5097631;28;20533;-61
2022/05/06 06:28:57;;;;;;;13.25;11.60;;;;;;;;;;5096580;28;20511;-61
2022/05/06 06:31:24;;;;;;;13.50;10.93;;;;;;;;;;5097949;28;20226;-62
2022/05/06 06:33:50;;;;;;;11.68;10.55;;;;;;;;;;5099864;28;20203;-61
2022/05/06 06:36:17;;;;;;;22.27;11.50;;;;;;;;;;5099691;28;20378;-62
2022/05/06 06:38:43;;;;;;;11.45;10.35;;;;;;;;;;5099558;28;20219;-61
2022/05/06 06:41:10;;;;;;;13.60;10.98;;;;;;;;;;5099819;28;20553;-60
2022/05/06 06:43:36;;;;;;;11.43;9.88;;;;;;;;;;5099799;28;20222;-60
2022/05/06 06:46:06;;;;;;;10.80;9.70;;;;;;;;;;5099503;28;20215;-61
2022/05/06 06:48:32;;;;;;;13.95;10.88;;;;;;;;;;5099585;28;20230;-60
2022/05/06 06:50:59;;;;;;;13.45;10.52;;;;;;;;;;5099343;28;20208;-61
2022/05/06 06:53:26;;;;;;;11.25;10.07;;;;;;;;;;5099626;28;20207;-61
2022/05/06 06:55:52;;;;;;;11.63;10.02;;;;;;;;;;5099377;28;20207;-61
2022/05/06 06:58:18;;;;;;;12.65;11.05;;;;;;;;;;5099436;28;20208;-61
2022/05/06 07:00:45;;;;;;;11.25;10.02;;;;;;;;;;5099519;28;20231;-61
2022/05/06 07:03:13;;;;;;;13.93;10.48;;;;;;;;;;5099207;28;20223;-61
2022/05/06 07:11:52;;;;;;;13.32;11.98;;;;;;;;;;5099179;28;20223;-61
2022/05/06 07:13:55;;;;;;;12.32;10.32;;;;;;;;;;5078355;28;20271;-61
2022/05/06 07:16:22;;;;;;;13.57;9.00;;;;;;;;;;5078098;28;20583;-61
2022/05/06 07:18:50;;;;;;;11.88;9.50;;;;;;;;;;5077850;28;20228;-61
2022/05/06 07:21:16;;;;;;;11.40;9.32;;;;;;;;;;5078248;28;20215;-61
2022/05/06 07:23:43;;;;;;;17.13;10.02;;;;;;;;;;5078616;28;20209;-61
2022/05/06 07:26:09;;;;;;;10.30;9.00;;;;;;;;;;5077810;28;20201;-61
2022/05/06 07:28:35;;;;;;;12.18;9.00;;;;;;;;;;5077554;28;20265;-61
2022/05/06 07:31:02;;;;;;;10.75;9.63;;;;;;;;;;5078083;28;20433;-61
2022/05/06 07:33:28;;;;;;;9.80;8.90;;;;;;;;;;5077783;28;20212;-60
2022/05/06 07:35:56;;;;;;;13.73;10.48;;;;;;;;;;5077892;28;20214;-61
2022/05/06 07:38:22;;;;;;;11.63;9.45;;;;;;;;;;5077324;28;20284;-61
2022/05/06 07:40:49;;;;;;;13.48;9.43;;;;;;;;;;5077396;28;20228;-62
2022/05/06 07:43:15;;;;;;;11.20;9.60;;;;;;;;;;5076577;28;20219;-61
2022/05/06 07:45:41;;;;;;;13.27;9.35;;;;;;;;;;5077716;28;20219;-61
2022/05/06 07:48:08;;;;;;;16.58;9.98;;;;;;;;;;5077322;28;20408;-61
2022/05/06 07:50:35;;;;;;;15.38;9.35;;;;;;;;;;5077822;28;21206;-61
2022/05/06 07:53:02;;;;;;;12.93;10.07;;;;;;;;;;5077519;28;20209;-60
2022/05/06 07:55:29;;;;;;;10.65;9.60;;;;;;;;;;5096884;28;20214;-61
2022/05/06 07:57:57;;;;;;;9.60;8.60;;;;;;;;;;5096780;28;20594;-61
2022/05/06 08:00:24;;;;;;;9.82;8.88;;;;;;;;;;5097552;28;20415;-61
2022/05/06 08:05:34;;;;;;;13.90;8.77;;;;;;;;;;5097807;28;20572;-61
2022/05/06 08:08:00;;;;;;;11.18;8.70;;;;;;;;;;5096450;28;20437;-62
2022/05/06 08:10:28;;;;;;;15.00;9.15;;;;;;;;;;5097480;28;20227;-62
2022/05/06 08:12:55;;;;;;;12.73;8.63;;;;;;;;;;5097621;28;20563;-62
2022/05/06 08:15:22;;;;;;;13.85;9.10;;;;;;;;;;5097692;28;20235;-62
2022/05/06 08:17:49;;;;;;;11.93;8.20;;;;;;;;;;5096654;28;20279;-61
2022/05/06 08:20:16;;;;;;;11.35;8.77;;;;;;;;;;5097376;28;20321;-62
2022/05/06 08:22:42;;;;;;;9.85;8.45;;;;;;;;;;5097262;28;20445;-60
2022/05/06 08:25:09;;;;;;;9.35;8.45;;;;;;;;;;5097288;28;20213;-61
2022/05/06 08:27:39;;;;;;;9.50;8.27;;;;;;;;;;5096698;28;20550;-62
2022/05/06 08:30:06;;;;;;;11.35;8.32;;;;;;;;;;5096951;28;20208;-62
2022/05/06 08:32:33;;;;;;;8.90;7.93;;;;;;;;;;5096989;28;20207;-62
2022/05/06 08:34:59;;;;;;;9.15;8.20;;;;;;;;;;5097053;28;20523;-61
2022/05/06 08:37:25;;;;;;;11.00;8.10;;;;;;;;;;5096628;28;20402;-61
2022/05/06 08:39:52;;;;;;;9.75;8.43;;;;;;;;;;5096745;28;20547;-61
2022/05/06 08:42:19;;;;;;;9.50;8.48;;;;;;;;;;5097090;28;20214;-61
2022/05/06 08:53:02;;;;;;;12.43;7.72;;;;;;;;;;5097639;28;20209;-62
2022/05/06 08:55:29;;;;;;;11.05;7.93;;;;;;;;;;5097208;28;20398;-62
2022/05/06 08:57:55;;;;;;;10.55;8.00;;;;;;;;;;5096969;28;20249;-62
2022/05/06 09:00:24;;;;;;;9.15;8.02;;;;;;;;;;5097406;28;20227;-61
2022/05/06 09:02:51;;;;;;;9.00;7.10;;;;;;;;;;5097702;28;20801;-61
2022/05/06 09:05:18;;;;;;;9.20;7.40;;;;;;;;;;5097081;28;20223;-61
2022/05/06 09:07:54;;;;;;;11.38;7.55;;;;;;;;;;5096566;28;20282;-61
2022/05/06 09:10:20;;;;;;;12.70;7.78;;;;;;;;;;5097367;28;20204;-61
2022/05/06 09:12:47;;;;;;;12.68;7.30;;;;;;;;;;5096980;28;20215;-61
2022/05/06 09:17:59;;;;;;;7.20;6.50;;;;;;;;;;5096123;28;20210;-61
2022/05/06 09:20:26;;;;;;;14.23;7.72;;;;;;;;;;5096727;28;20239;-62
2022/05/06 09:22:52;;;;;;;8.63;6.75;;;;;;;;;;5096677;28;20204;-62
2022/05/06 09:25:34;;;;;;;10.35;8.32;;;;;;;;;;5097069;28;20211;-60
2022/05/06 09:28:00;;;;;;;10.10;7.38;;;;;;;;;;5096262;28;20222;-61
2022/05/06 09:30:27;;;;;;;10.93;7.80;;;;;;;;;;5096733;28;20544;-62
2022/05/06 09:32:53;;;;;;;7.55;6.85;;;;;;;;;;5096852;28;20531;-61
2022/05/06 09:35:20;;;;;;;10.40;8.50;;;;;;;;;;5096547;28;20215;-62
2022/05/06 09:37:48;;;;;;;10.25;7.55;;;;;;;;;;5096426;28;20208;-61
2022/05/06 09:40:15;;;;;;;12.80;7.90;;;;;;;;;;5096970;28;20589;-62
2022/05/06 09:42:42;;;;;;;9.80;7.13;;;;;;;;;;5097245;28;20211;-62
2022/05/06 09:45:09;;;;;;;8.30;7.15;;;;;;;;;;5097224;28;20217;-62
2022/05/06 09:47:36;;;;;;;10.02;6.95;;;;;;;;;;5096336;28;20204;-63
2022/05/06 09:50:03;;;;;;;9.25;7.53;;;;;;;;;;5096603;28;20414;-63
2022/05/06 09:52:30;;;;;;;8.10;7.40;;;;;;;;;;5097016;28;20454;-63
2022/05/06 09:54:57;;;;;;;10.98;6.78;;;;;;;;;;5096639;28;20216;-63
2022/05/06 09:57:24;;;;;;;7.32;6.72;;;;;;;;;;5095950;28;20222;-63
2022/05/06 09:59:50;;;;;;;11.45;6.93;;;;;;;;;;5096433;28;20484;-63
2022/05/06 10:02:17;;;;;;;7.28;6.30;;;;;;;;;;5096240;28;20289;-63
2022/05/06 10:04:44;;;;;;;8.13;6.13;;;;;;;;;;5096205;28;20207;-63
2022/05/06 10:07:11;;;;;;;9.65;6.15;;;;;;;;;;5098642;28;20207;-63
2022/05/06 10:09:41;;;;;;;7.60;5.75;;;;;;;;;;5100746;28;20207;-62
2022/05/06 10:12:09;;;;;;;9.32;7.30;;;;;;;;;;5100782;28;20207;-63
2022/05/06 10:14:39;;;;;;;13.35;6.75;;;;;;;;;;5100484;28;20283;-63
2022/05/06 10:17:05;;;;;;;10.90;8.15;;;;;;;;;;5098491;28;20212;-62
2022/05/06 10:19:45;;;;;;;14.32;7.07;;;;;;;;;;5099784;28;20211;-62
2022/05/06 10:22:11;;;;;;;8.75;6.20;;;;;;;;;;5100142;28;20207;-63
2022/05/06 10:24:40;;;;;;;6.80;5.63;;;;;;;;;;5100636;28;20550;-62
2022/05/06 10:27:21;;;;;;;5.50;5.00;;;;;;;;;;5099956;28;20214;-61
2022/05/06 10:32:54;;;;;;;8.93;6.80;;;;;;;;;;5100466;28;20211;-63
2022/05/06 10:35:36;;;;;;;6.55;5.93;;;;;;;;;;5100017;28;20569;-63
2022/05/06 10:38:14;;;;;;;5.97;5.43;;;;;;;;;;5099773;28;20557;-63
2022/05/06 10:40:48;;;;;;;7.45;5.72;;;;;;;;;;5099763;28;20231;-63
2022/05/06 10:43:30;;;;;;;6.60;5.70;;;;;;;;;;5099951;28;20211;-63
2022/05/06 10:45:56;;;;;;;7.45;5.47;;;;;;;;;;5099601;28;20204;-63
2022/05/06 10:48:22;;;;;;;7.25;5.32;;;;;;;;;;5099261;28;20213;-62
2022/05/06 10:50:49;;;;;;;6.85;5.22;;;;;;;;;;5099490;28;20204;-62
2022/05/06 10:53:30;;;;;;;8.45;5.45;;;;;;;;;;5099745;28;20226;-63
2022/05/06 10:55:57;;;;;;;7.30;4.72;;;;;;;;;;5099017;28;20647;-62
2022/05/06 10:58:24;;;;;;;5.32;4.90;;;;;;;;;;5099004;28;20387;-63
2022/05/06 11:00:50;;;;;;;6.70;5.20;;;;;;;;;;5099190;28;20232;-63
2022/05/06 11:03:23;;;;;;;7.22;5.05;;;;;;;;;;5099025;28;20598;-62
2022/05/06 11:05:51;;;;;;;5.43;4.97;;;;;;;;;;5098888;28;20250;-63
2022/05/06 11:08:20;;;;;;;5.63;4.43;;;;;;;;;;5098219;28;20387;-63
2022/05/06 11:10:49;;;;;;;5.25;4.75;;;;;;;;;;5099112;28;20210;-63
2022/05/06 11:13:18;;;;;;;8.57;5.07;;;;;;;;;;5099202;28;20275;-62
2022/05/06 11:15:45;;;;;;;6.47;4.32;;;;;;;;;;5099295;28;20578;-63
2022/05/06 11:18:11;;;;;;;7.88;5.22;;;;;;;;;;5097172;28;20555;-61
2022/05/06 11:20:38;;;;;;;5.93;4.72;;;;;;;;;;5099264;28;20223;-62
2022/05/06 11:23:06;;;;;;;5.05;4.60;;;;;;;;;;5099031;28;20208;-62
2022/05/06 11:25:32;;;;;;;5.43;4.93;;;;;;;;;;5099068;28;20222;-63
2022/05/06 11:27:59;;;;;;;5.30;4.38;;;;;;;;;;5098106;28;20207;-63
2022/05/06 11:30:28;;;;;;;4.97;4.22;;;;;;;;;;5098944;28;20204;-63
2022/05/06 11:32:55;;;;;;;4.70;4.18;;;;;;;;;;5099073;28;20208;-63
2022/05/06 11:35:36;;;;;;;5.65;4.47;;;;;;;;;;5099243;28;20411;-62
2022/05/06 11:38:02;;;;;;;7.30;4.38;;;;;;;;;;5095850;28;20215;-63
2022/05/06 11:40:36;;;;;;;7.20;3.97;;;;;;;;;;5098184;28;20231;-63
2022/05/06 11:43:04;;;;;;;6.53;4.07;;;;;;;;;;5098858;28;20215;-63
2022/05/06 11:48:18;;;;;;;7.97;4.80;;;;;;;;;;5098180;28;20211;-63
2022/05/06 11:50:45;;;;;;;6.07;3.80;;;;;;;;;;5098756;28;20265;-62
2022/05/06 11:53:13;;;;;;;5.60;4.75;;;;;;;;;;5098486;28;20212;-63
2022/05/06 11:55:41;;;;;;;5.50;5.00;;;;;;;;;;5098440;28;20519;-63
2022/05/06 11:58:08;;;;;;;7.05;5.13;;;;;;;;;;5097158;28;20219;-63
2022/05/06 12:00:36;;;;;;;11.30;5.70;;;;;;;;;;5098377;28;20224;-63
2022/05/06 12:03:04;;;;;;;7.72;4.95;;;;;;;;;;5098402;28;20222;-63
2022/05/06 12:05:30;;;;;;;8.85;4.93;;;;;;;;;;5097896;28;20224;-63
2022/05/06 12:07:56;;;;;;;5.72;4.70;;;;;;;;;;5097469;28;20212;-63
2022/05/06 12:10:23;;;;;;;7.25;4.30;;;;;;;;;;5098168;28;20211;-62
2022/05/06 12:12:53;;;;;;;5.97;4.93;;;;;;;;;;5098011;28;20249;-63
2022/05/06 12:15:20;;;;;;;7.38;5.28;;;;;;;;;;5098066;28;20229;-63
2022/05/06 12:17:48;;;;;;;5.00;4.60;;;;;;;;;;5097297;28;20569;-63
2022/05/06 12:20:36;;;;;;;4.70;4.30;;;;;;;;;;5098032;28;20207;-63
2022/05/06 12:23:02;;;;;;;5.35;4.85;;;;;;;;;;5093398;28;20666;-63
2022/05/06 12:25:29;;;;;;;8.30;5.30;;;;;;;;;;5097610;28;20214;-63
2022/05/06 12:28:08;;;;;;;9.27;4.28;;;;;;;;;;5097317;28;20421;-63
2022/05/06 12:30:35;;;;;;;4.88;4.50;;;;;;;;;;5097172;28;20572;-62
2022/05/06 12:33:02;;;;;;;6.32;4.30;;;;;;;;;;5097730;28;20207;-63
2022/05/06 12:35:29;;;;;;;9.40;4.30;;;;;;;;;;5097551;28;20208;-63
2022/05/06 12:37:56;;;;;;;4.53;4.10;;;;;;;;;;5097156;28;20286;-63
2022/05/06 12:40:28;;;;;;;6.43;4.90;;;;;;;;;;5097575;28;20212;-63
2022/05/06 12:43:03;;;;;;;5.78;4.13;;;;;;;;;;5097391;28;20207;-64
2022/05/06 12:45:29;;;;;;;5.82;4.00;;;;;;;;;;5097638;28;20218;-64
2022/05/06 12:50:40;;;;;;;4.75;4.35;;;;;;;;;;5097880;28;20270;-62
2022/05/06 12:53:07;;;;;;;6.78;4.03;;;;;;;;;;5097948;28;20208;-62
2022/05/06 12:55:33;;;;;;;7.80;4.38;;;;;;;;;;5077159;28;20543;-63
2022/05/06 12:57:59;;;;;;;7.82;4.65;;;;;;;;;;5076559;28;20215;-63
2022/05/06 13:00:26;;;;;;;4.97;4.38;;;;;;;;;;5076830;28;20215;-63
2022/05/06 13:02:52;;;;;;;5.72;4.13;;;;;;;;;;5076888;28;20218;-63
2022/05/06 13:05:18;;;;;;;5.95;4.03;;;;;;;;;;5087000;28;20314;-63
2022/05/06 13:07:47;;;;;;;7.28;4.28;;;;;;;;;;5096497;28;20234;-63
2022/05/06 13:10:14;;;;;;;7.05;5.10;;;;;;;;;;5096541;28;20215;-62
2022/05/06 13:12:40;;;;;;;5.22;4.63;;;;;;;;;;5096849;28;20211;-63
2022/05/06 13:15:07;;;;;;;5.95;4.35;;;;;;;;;;5097016;28;20208;-62
2022/05/06 13:17:33;;;;;;;8.00;4.50;;;;;;;;;;5096353;28;20211;-63
2022/05/06 13:19:59;;;;;;;8.50;4.93;;;;;;;;;;5096908;28;20208;-63
2022/05/06 13:22:25;;;;;;;6.30;4.28;;;;;;;;;;5098139;28;20235;-63
2022/05/06 13:24:53;;;;;;;7.75;4.72;;;;;;;;;;5099769;28;20195;-63
2022/05/06 13:27:19;;;;;;;6.43;4.28;;;;;;;;;;5099475;28;20249;-63
2022/05/06 13:29:46;;;;;;;5.13;4.47;;;;;;;;;;5099016;28;20203;-60
2022/05/06 13:32:12;;;;;;;5.60;4.88;;;;;;;;;;5099676;28;20516;-60
2022/05/06 13:34:39;;;;;;;5.53;4.65;;;;;;;;;;5099492;28;20226;-63
2022/05/06 13:37:05;;;;;;;5.75;4.60;;;;;;;;;;5099509;28;20449;-62
2022/05/06 13:39:31;;;;;;;4.50;4.20;;;;;;;;;;5099537;28;20211;-63
2022/05/06 13:41:59;;;;;;;6.22;4.57;;;;;;;;;;5098819;28;20231;-62
2022/05/06 13:44:25;;;;;;;7.78;4.57;;;;;;;;;;5099260;28;20210;-63
2022/05/06 13:46:52;;;;;;;8.80;4.72;;;;;;;;;;5099496;28;20401;-63
2022/05/06 13:49:19;;;;;;;4.55;4.25;;;;;;;;;;5098665;28;20230;-63
2022/05/06 13:51:45;;;;;;;6.43;4.15;;;;;;;;;;5099214;28;20226;-63
2022/05/06 13:54:11;;;;;;;5.03;4.53;;;;;;;;;;5099475;28;20275;-63
2022/05/06 13:59:23;;;;;;;4.45;4.05;;;;;;;;;;5083654;28;20206;-61
2022/05/06 14:01:50;;;;;;;8.40;4.93;;;;;;;;;;5101521;28;20226;-63
2022/05/06 14:04:16;;;;;;;7.18;4.82;;;;;;;;;;5101894;28;20195;-63
2022/05/06 14:06:42;;;;;;;5.15;3.90;;;;;;;;;;5101752;28;20224;-63
2022/05/06 14:09:09;;;;;;;4.70;4.30;;;;;;;;;;5101831;28;20199;-63
2022/05/06 14:11:35;;;;;;;4.35;3.97;;;;;;;;;;5101311;28;20192;-65
2022/05/06 14:14:01;;;;;;;4.95;4.13;;;;;;;;;;5101435;28;20199;-64
2022/05/06 14:16:29;;;;;;;6.68;4.22;;;;;;;;;;5101305;28;20241;-64
2022/05/06 14:18:57;;;;;;;4.57;4.18;;;;;;;;;;5101462;28;20196;-64
2022/05/06 14:21:23;;;;;;;4.70;4.40;;;;;;;;;;5101492;28;20333;-64
2022/05/06 14:23:50;;;;;;;5.57;4.45;;;;;;;;;;5101424;28;20196;-64
2022/05/06 14:26:16;;;;;;;6.25;4.43;;;;;;;;;;5101156;28;20262;-64
2022/05/06 14:28:42;;;;;;;7.32;4.30;;;;;;;;;;5100290;28;20210;-63
2022/05/06 14:31:09;;;;;;;6.55;4.03;;;;;;;;;;5100960;28;20218;-63
2022/05/06 14:33:36;;;;;;;4.57;4.20;;;;;;;;;;5100079;28;20204;-63
2022/05/06 14:36:03;;;;;;;6.00;4.40;;;;;;;;;;5100196;28;20518;-63
2022/05/06 14:38:30;;;;;;;5.63;4.45;;;;;;;;;;5100219;28;20262;-64
2022/05/06 14:40:56;;;;;;;5.40;4.03;;;;;;;;;;5100497;28;20192;-64
2022/05/06 14:43:22;;;;;;;7.60;4.72;;;;;;;;;;5101053;28;20431;-64
2022/05/06 14:45:49;;;;;;;7.80;4.03;;;;;;;;;;5101178;28;20247;-64
2022/05/06 14:48:15;;;;;;;4.93;3.80;;;;;;;;;;5100964;28;20207;-64
2022/05/06 14:50:43;;;;;;;6.13;4.30;;;;;;;;;;5101056;28;20196;-64
2022/05/06 14:53:09;;;;;;;6.82;4.57;;;;;;;;;;5103364;28;20200;-65
2022/05/06 14:55:36;;;;;;;5.93;4.40;;;;;;;;;;5104792;28;20495;-64
2022/05/06 14:58:02;;;;;;;4.68;4.05;;;;;;;;;;5104483;28;20226;-64
2022/05/06 15:00:28;;;;;;;4.70;4.30;;;;;;;;;;5104988;28;20556;-64
2022/05/06 15:02:55;;;;;;;6.03;4.22;;;;;;;;;;5105086;28;20226;-64
2022/05/06 15:05:21;;;;;;;4.47;3.78;;;;;;;;;;5105475;28;20216;-64
2022/05/06 15:07:48;;;;;;;6.18;4.70;;;;;;;;;;5104977;28;20196;-64
2022/05/06 15:10:15;;;;;;;5.15;4.00;;;;;;;;;;5105099;28;20200;-64
2022/05/06 15:12:42;;;;;;;4.60;4.13;;;;;;;;;;5104967;28;20199;-63